Time,TemperatureF,DewpointF,PressureIn,WindDirection,WindDirectionDegrees,WindSpeedMPH,WindSpeedGustMPH,Humidity,HourlyPrecipIn,Conditions,Clouds,dailyrainin,SoftwareType,DateUTC
2013-07-30 00:01:00,82.0,70.8,29.95,South,176,1.0,4.0,69,0.00,,,0.00,WeatherCatV1.21B27,2013-07-30 05:01:00,
2013-07-30 00:06:00,81.8,70.6,29.95,SE,146,3.0,4.0,69,0.00,,,0.00,WeatherCatV1.21B27,2013-07-30 05:06:00,
2013-07-30 00:11:00,81.7,70.9,29.96,SE,145,1.0,6.0,70,0.00,,,0.00,WeatherCatV1.21B27,2013-07-30 05:11:00,
2013-07-30 00:16:00,81.5,70.8,29.96,SSE,164,1.0,5.0,70,0.00,,,0.00,WeatherCatV1.21B27,2013-07-30 05:16:00,
2013-07-30 00:21:00,81.4,71.1,29.96,SE,143,2.0,4.0,71,0.00,,,0.00,WeatherCatV1.21B27,2013-07-30 05:21:00,
2013-07-30 00:26:00,81.3,71.0,29.97,South,169,3.0,6.0,71,0.00,,,0.00,WeatherCatV1.21B27,2013-07-30 05:26:00,
2013-07-30 00:31:00,81.1,71.2,29.97,SE,127,3.0,6.0,72,0.00,,,0.00,WeatherCatV1.21B27,2013-07-30 05:31:00,
2013-07-30 00:36:00,81.0,71.1,29.97,SSE,156,2.0,5.0,72,0.00,,,0.00,WeatherCatV1.21B27,2013-07-30 05:36:00,
2013-07-30 00:41:00,80.9,71.4,29.97,SE,124,1.0,3.0,73,0.00,,,0.00,WeatherCatV1.21B27,2013-07-30 05:41:00,
2013-07-30 00:46:00,80.7,71.2,29.96,ESE,116,3.0,4.0,73,0.00,,,0.00,WeatherCatV1.21B27,2013-07-30 05:46:00,
2013-07-30 00:51:00,80.5,71.4,29.96,SSE,155,3.0,8.0,74,0.00,,,0.00,WeatherCatV1.21B27,2013-07-30 05:51:00,
2013-07-30 00:56:00,80.4,71.3,29.96,SSE,165,3.0,4.0,74,0.00,,,0.00,WeatherCatV1.21B27,2013-07-30 05:56:00,
2013-07-30 01:01:00,80.2,71.5,29.96,SE,140,3.0,4.0,75,0.00,,,0.00,WeatherCatV1.21B27,2013-07-30 06:01:00,
2013-07-30 01:06:00,80.1,71.8,29.97,South,169,2.0,5.0,76,0.00,,,0.00,WeatherCatV1.21B27,2013-07-30 06:06:00,
2013-07-30 01:11:00,79.9,71.6,29.97,South,185,1.0,4.0,76,0.00,,,0.00,WeatherCatV1.21B27,2013-07-30 06:11:00,
2013-07-30 01:16:00,79.8,71.9,29.97,SSW,203,1.0,3.0,77,0.00,,,0.00,WeatherCatV1.21B27,2013-07-30 06:16:00,
2013-07-30 01:21:00,79.7,71.8,29.97,South,180,1.0,2.0,77,0.00,,,0.00,WeatherCatV1.21B27,2013-07-30 06:21:00,
2013-07-30 01:26:00,79.6,72.1,29.97,SE,136,3.0,6.0,78,0.00,,,0.00,WeatherCatV1.21B27,2013-07-30 06:26:00,
2013-07-30 01:31:00,79.5,72.0,29.97,SSE,165,1.0,4.0,78,0.00,,,0.00,WeatherCatV1.21B27,2013-07-30 06:31:00,
2013-07-30 01:36:00,79.4,71.9,29.97,South,189,1.0,3.0,78,0.00,,,0.00,WeatherCatV1.21B27,2013-07-30 06:36:00,
2013-07-30 01:41:00,79.3,72.2,29.97,SE,134,1.0,2.0,79,0.00,,,0.00,WeatherCatV1.21B27,2013-07-30 06:41:00,
2013-07-30 01:46:00,79.2,72.1,29.97,South,172,2.0,8.0,79,0.00,,,0.00,WeatherCatV1.21B27,2013-07-30 06:46:00,
2013-07-30 01:51:00,79.1,72.4,29.97,South,188,3.0,8.0,80,0.00,,,0.00,WeatherCatV1.21B27,2013-07-30 06:51:00,
2013-07-30 01:56:00,79.1,72.4,29.97,SE,136,3.0,6.0,80,0.00,,,0.00,WeatherCatV1.21B27,2013-07-30 06:56:00,
2013-07-30 02:01:00,79.1,72.4,29.97,SE,143,3.0,5.0,80,0.00,,,0.00,WeatherCatV1.21B27,2013-07-30 07:01:00,
2013-07-30 02:06:00,79.1,72.4,29.97,ESE,112,3.0,9.0,80,0.00,,,0.00,WeatherCatV1.21B27,2013-07-30 07:06:00,
2013-07-30 02:11:00,79.1,72.4,29.97,SSE,161,2.0,6.0,80,0.00,,,0.00,WeatherCatV1.21B27,2013-07-30 07:11:00,
2013-07-30 02:16:00,79.0,72.7,29.97,SSE,157,1.0,4.0,81,0.00,,,0.00,WeatherCatV1.21B27,2013-07-30 07:16:00,
2013-07-30 02:21:00,78.9,72.6,29.97,SE,137,3.0,4.0,81,0.00,,,0.00,WeatherCatV1.21B27,2013-07-30 07:21:00,
2013-07-30 02:26:00,78.8,72.5,29.97,ESE,105,3.0,6.0,81,0.00,,,0.00,WeatherCatV1.21B27,2013-07-30 07:26:00,
2013-07-30 02:31:00,78.7,72.4,29.97,SE,143,2.0,5.0,81,0.00,,,0.00,WeatherCatV1.21B27,2013-07-30 07:31:00,
2013-07-30 02:36:00,78.6,72.3,29.97,SE,129,4.0,7.0,81,0.00,,,0.00,WeatherCatV1.21B27,2013-07-30 07:36:00,
2013-07-30 02:41:00,78.5,72.5,29.97,SE,146,3.0,4.0,82,0.00,,,0.00,WeatherCatV1.21B27,2013-07-30 07:41:00,
2013-07-30 02:46:00,78.5,72.2,29.97,South,169,3.0,6.0,81,0.00,,,0.00,WeatherCatV1.21B27,2013-07-30 07:46:00,
2013-07-30 02:51:00,78.4,72.4,29.97,South,179,1.0,4.0,82,0.00,,,0.00,WeatherCatV1.21B27,2013-07-30 07:51:00,
2013-07-30 02:56:00,78.3,72.3,29.97,SE,127,4.0,5.0,82,0.00,,,0.00,WeatherCatV1.21B27,2013-07-30 07:56:00,
2013-07-30 03:01:00,78.2,72.2,29.97,SSE,167,2.0,4.0,82,0.00,,,0.00,WeatherCatV1.21B27,2013-07-30 08:01:00,
2013-07-30 03:06:00,78.2,72.2,29.97,SSE,158,2.0,4.0,82,0.00,,,0.00,WeatherCatV1.21B27,2013-07-30 08:06:00,
2013-07-30 03:11:00,78.1,72.1,29.97,SE,129,2.0,4.0,82,0.00,,,0.00,WeatherCatV1.21B27,2013-07-30 08:11:00,
2013-07-30 03:16:00,78.1,72.5,29.97,SSE,155,1.0,3.0,83,0.00,,,0.00,WeatherCatV1.21B27,2013-07-30 08:16:00,
2013-07-30 03:21:00,78.0,72.4,29.97,SSW,210,1.0,3.0,83,0.00,,,0.00,WeatherCatV1.21B27,2013-07-30 08:21:00,
2013-07-30 03:26:00,78.0,72.0,29.98,SSE,165,2.0,5.0,82,0.00,,,0.00,WeatherCatV1.21B27,2013-07-30 08:26:00,
2013-07-30 03:31:00,78.0,72.0,29.98,South,179,1.0,4.0,82,0.00,,,0.00,WeatherCatV1.21B27,2013-07-30 08:31:00,
2013-07-30 03:36:00,77.9,72.3,29.98,SSW,210,1.0,3.0,83,0.00,,,0.00,WeatherCatV1.21B27,2013-07-30 08:36:00,
2013-07-30 03:41:00,77.9,72.3,29.98,SSW,210,1.0,3.0,83,0.00,,,0.00,WeatherCatV1.21B27,2013-07-30 08:41:00,
2013-07-30 03:46:00,77.9,72.3,29.98,ESE,113,1.0,3.0,83,0.00,,,0.00,WeatherCatV1.21B27,2013-07-30 08:46:00,
2013-07-30 03:51:00,77.9,72.3,29.98,South,172,1.0,3.0,83,0.00,,,0.00,WeatherCatV1.21B27,2013-07-30 08:51:00,
2013-07-30 03:56:00,77.8,72.2,29.98,South,191,1.0,3.0,83,0.00,,,0.00,WeatherCatV1.21B27,2013-07-30 08:56:00,
2013-07-30 04:01:00,77.7,72.1,29.98,ESE,117,1.0,4.0,83,0.00,,,0.00,WeatherCatV1.21B27,2013-07-30 09:01:00,
2013-07-30 04:06:00,77.7,72.1,29.98,ESE,122,1.0,1.0,83,0.00,,,0.00,WeatherCatV1.21B27,2013-07-30 09:06:00,
2013-07-30 04:11:00,77.6,72.0,29.98,SW,219,0.0,2.0,83,0.00,,,0.00,WeatherCatV1.21B27,2013-07-30 09:11:00,
2013-07-30 04:16:00,77.4,71.8,29.98,SSE,154,2.0,2.0,83,0.00,,,0.00,WeatherCatV1.21B27,2013-07-30 09:16:00,
2013-07-30 04:21:00,77.3,71.7,29.98,WSW,243,2.0,5.0,83,0.00,,,0.00,WeatherCatV1.21B27,2013-07-30 09:21:00,
2013-07-30 04:26:00,77.3,71.7,29.98,SSW,200,1.0,2.0,83,0.00,,,0.00,WeatherCatV1.21B27,2013-07-30 09:26:00,
2013-07-30 04:31:00,77.2,72.0,29.98,SSE,153,2.0,5.0,84,0.00,,,0.00,WeatherCatV1.21B27,2013-07-30 09:31:00,
2013-07-30 04:36:00,77.2,72.0,29.98,SSW,212,0.0,2.0,84,0.00,,,0.00,WeatherCatV1.21B27,2013-07-30 09:36:00,
2013-07-30 04:41:00,77.1,71.9,29.98,South,185,1.0,3.0,84,0.00,,,0.00,WeatherCatV1.21B27,2013-07-30 09:41:00,
2013-07-30 04:46:00,77.1,71.9,29.99,WSW,245,0.0,0.0,84,0.00,,,0.00,WeatherCatV1.21B27,2013-07-30 09:46:00,
2013-07-30 04:51:00,77.1,71.9,29.99,SSE,164,0.0,2.0,84,0.00,,,0.00,WeatherCatV1.21B27,2013-07-30 09:51:00,
2013-07-30 04:56:00,77.0,72.1,29.99,SSW,203,1.0,2.0,85,0.00,,,0.00,WeatherCatV1.21B27,2013-07-30 09:56:00,
2013-07-30 05:01:00,77.0,72.1,29.99,SW,233,1.0,1.0,85,0.00,,,0.00,WeatherCatV1.21B27,2013-07-30 10:01:00,
2013-07-30 05:06:00,77.0,71.8,30.00,SSW,200,0.0,4.0,84,0.00,,,0.00,WeatherCatV1.21B27,2013-07-30 10:06:00,
2013-07-30 05:11:00,77.1,71.9,29.99,WSW,250,0.0,1.0,84,0.00,,,0.00,WeatherCatV1.21B27,2013-07-30 10:11:00,
2013-07-30 05:16:00,77.2,72.0,30.00,WSW,240,3.0,6.0,84,0.00,,,0.00,WeatherCatV1.21B27,2013-07-30 10:16:00,
2013-07-30 05:21:00,77.2,72.0,29.99,SSW,207,0.0,1.0,84,0.00,,,0.00,WeatherCatV1.21B27,2013-07-30 10:21:00,
2013-07-30 05:26:00,77.2,72.0,29.99,SSE,147,2.0,3.0,84,0.00,,,0.00,WeatherCatV1.21B27,2013-07-30 10:26:00,
2013-07-30 05:31:00,77.3,72.1,29.99,South,171,1.0,3.0,84,0.00,,,0.00,WeatherCatV1.21B27,2013-07-30 10:31:00,
2013-07-30 05:36:00,77.3,72.1,30.00,SSW,197,0.0,2.0,84,0.00,,,0.00,WeatherCatV1.21B27,2013-07-30 10:36:00,
2013-07-30 05:41:00,77.2,72.0,30.00,SW,219,0.0,3.0,84,0.00,,,0.00,WeatherCatV1.21B27,2013-07-30 10:41:00,
2013-07-30 05:46:00,77.2,72.0,30.00,SW,221,0.0,2.0,84,0.00,,,0.00,WeatherCatV1.21B27,2013-07-30 10:46:00,
2013-07-30 05:51:00,77.2,72.0,30.00,SW,230,0.0,0.0,84,0.00,,,0.00,WeatherCatV1.21B27,2013-07-30 10:51:00,
2013-07-30 05:56:00,77.1,72.2,30.00,South,185,0.0,1.0,85,0.00,,,0.00,WeatherCatV1.21B27,2013-07-30 10:56:00,
2013-07-30 06:01:00,77.1,72.2,30.00,SSW,211,0.0,2.0,85,0.00,,,0.00,WeatherCatV1.21B27,2013-07-30 11:01:00,
2013-07-30 06:06:00,77.0,72.1,30.00,SSW,210,1.0,1.0,85,0.00,,,0.00,WeatherCatV1.21B27,2013-07-30 11:06:00,
2013-07-30 06:11:00,76.9,72.4,30.00,SSW,198,0.0,1.0,86,0.00,,,0.00,WeatherCatV1.21B27,2013-07-30 11:11:00,
2013-07-30 06:16:00,76.8,72.3,30.00,WSW,238,1.0,2.0,86,0.00,,,0.00,WeatherCatV1.21B27,2013-07-30 11:16:00,
2013-07-30 06:21:00,76.7,71.8,30.00,West,270,0.0,0.0,85,0.00,,,0.00,WeatherCatV1.21B27,2013-07-30 11:21:00,
2013-07-30 06:26:00,76.5,72.0,30.00,SSW,212,0.0,0.0,86,0.00,,,0.00,WeatherCatV1.21B27,2013-07-30 11:26:00,
2013-07-30 06:31:00,76.4,72.2,30.00,SW,219,0.0,0.0,87,0.00,,,0.00,WeatherCatV1.21B27,2013-07-30 11:31:00,
2013-07-30 06:36:00,76.3,72.1,30.01,SW,231,0.0,0.0,87,0.00,,,0.00,WeatherCatV1.21B27,2013-07-30 11:36:00,
2013-07-30 06:41:00,76.1,71.9,30.01,SW,231,0.0,0.0,87,0.00,,,0.00,WeatherCatV1.21B27,2013-07-30 11:41:00,
2013-07-30 06:46:00,75.9,71.7,30.01,SW,231,0.0,0.0,87,0.00,,,0.00,WeatherCatV1.21B27,2013-07-30 11:46:00,
2013-07-30 06:51:00,75.7,71.9,30.01,SW,231,0.0,0.0,88,0.00,,,0.00,WeatherCatV1.21B27,2013-07-30 11:51:00,
2013-07-30 06:56:00,75.8,72.0,30.02,SSW,193,0.0,1.0,88,0.00,,,0.00,WeatherCatV1.21B27,2013-07-30 11:56:00,
2013-07-30 07:01:00,75.9,72.1,30.02,SW,219,0.0,0.0,88,0.00,,,0.00,WeatherCatV1.21B27,2013-07-30 12:01:00,
2013-07-30 07:06:00,75.9,72.1,30.02,SW,216,0.0,1.0,88,0.00,,,0.00,WeatherCatV1.21B27,2013-07-30 12:06:00,
2013-07-30 07:11:00,75.8,72.0,30.02,SW,233,0.0,2.0,88,0.00,,,0.00,WeatherCatV1.21B27,2013-07-30 12:11:00,
2013-07-30 07:16:00,76.1,72.3,30.02,SW,233,0.0,0.0,88,0.00,,,0.00,WeatherCatV1.21B27,2013-07-30 12:16:00,
2013-07-30 07:21:00,76.3,72.5,30.02,SW,233,0.0,0.0,88,0.00,,,0.00,WeatherCatV1.21B27,2013-07-30 12:21:00,
2013-07-30 07:26:00,76.6,72.8,30.03,SW,232,0.0,0.0,88,0.00,,,0.00,WeatherCatV1.21B27,2013-07-30 12:26:00,
2013-07-30 07:31:00,76.8,72.6,30.02,SSW,210,0.0,0.0,87,0.00,,,0.00,WeatherCatV1.21B27,2013-07-30 12:31:00,
2013-07-30 07:36:00,77.2,72.7,30.02,SSE,155,1.0,1.0,86,0.00,,,0.00,WeatherCatV1.21B27,2013-07-30 12:36:00,
2013-07-30 07:41:00,77.5,72.6,30.02,SSE,154,0.0,2.0,85,0.00,,,0.00,WeatherCatV1.21B27,2013-07-30 12:41:00,
2013-07-30 07:46:00,77.8,72.9,30.03,SE,134,1.0,1.0,85,0.00,,,0.00,WeatherCatV1.21B27,2013-07-30 12:46:00,
2013-07-30 07:51:00,78.1,72.9,30.02,SE,126,2.0,3.0,84,0.00,,,0.00,WeatherCatV1.21B27,2013-07-30 12:51:00,
2013-07-30 07:56:00,78.4,73.2,30.03,South,188,0.0,2.0,84,0.00,,,0.00,WeatherCatV1.21B27,2013-07-30 12:56:00,
2013-07-30 08:01:00,78.6,73.0,30.02,SSE,167,2.0,3.0,83,0.00,,,0.00,WeatherCatV1.21B27,2013-07-30 13:01:00,
2013-07-30 08:06:00,78.8,73.2,30.03,South,184,0.0,2.0,83,0.00,,,0.00,WeatherCatV1.21B27,2013-07-30 13:06:00,
2013-07-30 08:11:00,79.0,73.4,30.02,SSE,150,0.0,0.0,83,0.00,,,0.00,WeatherCatV1.21B27,2013-07-30 13:11:00,
2013-07-30 08:16:00,79.2,73.2,30.03,South,188,1.0,2.0,82,0.00,,,0.00,WeatherCatV1.21B27,2013-07-30 13:16:00,
2013-07-30 08:21:00,79.3,73.3,30.03,SSW,198,2.0,2.0,82,0.00,,,0.00,WeatherCatV1.21B27,2013-07-30 13:21:00,
2013-07-30 08:26:00,79.5,73.5,30.03,South,172,1.0,2.0,82,0.00,,,0.00,WeatherCatV1.21B27,2013-07-30 13:26:00,
2013-07-30 08:31:00,79.7,73.3,30.03,SSE,165,1.0,3.0,81,0.00,,,0.00,WeatherCatV1.21B27,2013-07-30 13:31:00,
2013-07-30 08:36:00,79.8,73.1,30.02,SSE,165,4.0,4.0,80,0.00,,,0.00,WeatherCatV1.21B27,2013-07-30 13:36:00,
2013-07-30 08:41:00,79.8,73.4,30.03,WSW,245,2.0,4.0,81,0.00,,,0.00,WeatherCatV1.21B27,2013-07-30 13:41:00,
2013-07-30 08:46:00,79.9,73.2,30.03,SW,236,4.0,4.0,80,0.00,,,0.00,WeatherCatV1.21B27,2013-07-30 13:46:00,
2013-07-30 08:51:00,80.1,73.0,30.03,SE,135,2.0,5.0,79,0.00,,,0.00,WeatherCatV1.21B27,2013-07-30 13:51:00,
2013-07-30 08:56:00,80.3,73.2,30.03,ESE,110,3.0,4.0,79,0.00,,,0.00,WeatherCatV1.21B27,2013-07-30 13:56:00,
2013-07-30 09:01:00,80.8,73.3,30.03,WSW,258,1.0,8.0,78,0.00,,,0.00,WeatherCatV1.21B27,2013-07-30 14:01:00,
2013-07-30 09:06:00,81.1,72.8,30.04,SSE,148,2.0,9.0,76,0.00,,,0.00,WeatherCatV1.21B27,2013-07-30 14:06:00,
2013-07-30 09:11:00,81.4,73.1,30.04,WSW,245,3.0,4.0,76,0.00,,,0.00,WeatherCatV1.21B27,2013-07-30 14:11:00,
2013-07-30 09:16:00,81.4,72.7,30.04,SW,214,3.0,4.0,75,0.00,,,0.00,WeatherCatV1.21B27,2013-07-30 14:16:00,
2013-07-30 09:21:00,81.8,73.1,30.04,SE,145,1.0,4.0,75,0.00,,,0.00,WeatherCatV1.21B27,2013-07-30 14:21:00,
2013-07-30 09:26:00,82.4,73.7,30.04,SW,220,0.0,2.0,75,0.00,,,0.00,WeatherCatV1.21B27,2013-07-30 14:26:00,
2013-07-30 09:31:00,82.9,72.9,30.03,SE,130,3.0,6.0,72,0.00,,,0.00,WeatherCatV1.21B27,2013-07-30 14:31:00,
2013-07-30 09:36:00,83.1,73.1,30.03,SSE,154,4.0,7.0,72,0.00,,,0.00,WeatherCatV1.21B27,2013-07-30 14:36:00,
2013-07-30 09:41:00,83.2,72.8,30.03,WSW,243,3.0,7.0,71,0.00,,,0.00,WeatherCatV1.21B27,2013-07-30 14:41:00,
2013-07-30 09:46:00,83.4,72.6,30.03,SSW,203,3.0,7.0,70,0.00,,,0.00,WeatherCatV1.21B27,2013-07-30 14:46:00,
2013-07-30 09:51:00,83.6,72.8,30.03,ESE,110,4.0,5.0,70,0.00,,,0.00,WeatherCatV1.21B27,2013-07-30 14:51:00,
2013-07-30 09:56:00,83.9,72.6,30.03,West,272,1.0,6.0,69,0.00,,,0.00,WeatherCatV1.21B27,2013-07-30 14:56:00,
2013-07-30 10:01:00,84.3,73.0,30.03,WSW,238,2.0,5.0,69,0.00,,,0.00,WeatherCatV1.21B27,2013-07-30 15:01:00,
2013-07-30 10:06:00,84.9,73.1,30.03,ESE,108,5.0,5.0,68,0.00,,,0.00,WeatherCatV1.21B27,2013-07-30 15:06:00,
2013-07-30 10:11:00,85.6,73.3,30.03,West,266,3.0,6.0,67,0.00,,,0.00,WeatherCatV1.21B27,2013-07-30 15:11:00,
2013-07-30 10:16:00,85.9,73.2,30.03,WNW,295,1.0,6.0,66,0.00,,,0.00,WeatherCatV1.21B27,2013-07-30 15:16:00,
2013-07-30 10:21:00,86.6,72.9,30.03,East,80,2.0,6.0,64,0.00,,,0.00,WeatherCatV1.21B27,2013-07-30 15:21:00,
2013-07-30 10:26:00,87.0,72.8,30.03,West,260,3.0,3.0,63,0.00,,,0.00,WeatherCatV1.21B27,2013-07-30 15:26:00,
2013-07-30 10:31:00,87.3,72.2,30.03,SE,136,2.0,8.0,61,0.00,,,0.00,WeatherCatV1.21B27,2013-07-30 15:31:00,
2013-07-30 10:36:00,87.1,72.0,30.02,SSW,204,1.0,6.0,61,0.00,,,0.00,WeatherCatV1.21B27,2013-07-30 15:36:00,
2013-07-30 10:41:00,87.7,72.6,30.02,SE,128,3.0,6.0,61,0.00,,,0.00,WeatherCatV1.21B27,2013-07-30 15:41:00,
2013-07-30 10:46:00,88.0,72.8,30.02,East,89,4.0,7.0,61,0.00,,,0.00,WeatherCatV1.21B27,2013-07-30 15:46:00,
2013-07-30 10:51:00,88.1,72.9,30.02,SW,215,3.0,7.0,61,0.00,,,0.00,WeatherCatV1.21B27,2013-07-30 15:51:00,
2013-07-30 10:56:00,88.9,72.7,30.02,SSE,147,1.0,6.0,59,0.00,,,0.00,WeatherCatV1.21B27,2013-07-30 15:56:00,
2013-07-30 11:01:00,89.5,73.2,30.02,SE,129,3.0,5.0,59,0.00,,,0.00,WeatherCatV1.21B27,2013-07-30 16:01:00,
2013-07-30 11:06:00,89.5,72.7,30.02,SW,233,0.0,5.0,58,0.00,,,0.00,WeatherCatV1.21B27,2013-07-30 16:06:00,
2013-07-30 11:11:00,89.8,73.0,30.02,ESE,109,4.0,6.0,58,0.00,,,0.00,WeatherCatV1.21B27,2013-07-30 16:11:00,
2013-07-30 11:16:00,90.2,71.8,30.02,SSW,213,4.0,4.0,55,0.00,,,0.00,WeatherCatV1.21B27,2013-07-30 16:16:00,
2013-07-30 11:21:00,90.5,72.6,30.02,South,169,2.0,6.0,56,0.00,,,0.00,WeatherCatV1.21B27,2013-07-30 16:21:00,
2013-07-30 11:26:00,90.8,72.9,30.02,SE,139,1.0,5.0,56,0.00,,,0.00,WeatherCatV1.21B27,2013-07-30 16:26:00,
2013-07-30 11:31:00,90.7,73.3,30.02,SE,126,1.0,4.0,57,0.00,,,0.00,WeatherCatV1.21B27,2013-07-30 16:31:00,
2013-07-30 11:36:00,90.8,72.4,30.02,SE,134,2.0,5.0,55,0.00,,,0.00,WeatherCatV1.21B27,2013-07-30 16:36:00,
2013-07-30 11:41:00,91.3,73.4,30.01,ESE,117,3.0,6.0,56,0.00,,,0.00,WeatherCatV1.21B27,2013-07-30 16:41:00,
2013-07-30 11:46:00,91.4,71.8,30.01,SSE,159,2.0,6.0,53,0.00,,,0.00,WeatherCatV1.21B27,2013-07-30 16:46:00,
2013-07-30 11:51:00,91.7,72.7,30.01,WNW,287,3.0,3.0,54,0.00,,,0.00,WeatherCatV1.21B27,2013-07-30 16:51:00,
2013-07-30 11:56:00,92.4,71.6,30.01,SE,134,3.0,6.0,51,0.00,,,0.00,WeatherCatV1.21B27,2013-07-30 16:56:00,
2013-07-30 12:01:00,92.5,72.3,30.01,ESE,110,1.0,5.0,52,0.00,,,0.00,WeatherCatV1.21B27,2013-07-30 17:01:00,
2013-07-30 12:06:00,92.7,71.3,30.01,SSE,151,0.0,5.0,50,0.00,,,0.00,WeatherCatV1.21B27,2013-07-30 17:06:00,
2013-07-30 12:11:00,93.2,72.3,30.01,South,181,2.0,5.0,51,0.00,,,0.00,WeatherCatV1.21B27,2013-07-30 17:11:00,
2013-07-30 12:16:00,93.8,72.3,30.01,SW,219,1.0,4.0,50,0.00,,,0.00,WeatherCatV1.21B27,2013-07-30 17:16:00,
2013-07-30 12:21:00,93.6,71.5,30.01,SE,146,1.0,5.0,49,0.00,,,0.00,WeatherCatV1.21B27,2013-07-30 17:21:00,
2013-07-30 12:26:00,93.4,71.9,30.01,SW,230,4.0,6.0,50,0.00,,,0.00,WeatherCatV1.21B27,2013-07-30 17:26:00,
2013-07-30 12:31:00,92.7,71.3,30.01,ESE,111,1.0,5.0,50,0.00,,,0.00,WeatherCatV1.21B27,2013-07-30 17:31:00,
2013-07-30 12:36:00,93.0,71.6,30.00,SE,126,3.0,7.0,50,0.00,,,0.00,WeatherCatV1.21B27,2013-07-30 17:36:00,
2013-07-30 12:41:00,94.0,71.3,30.00,SSE,147,1.0,4.0,48,0.00,,,0.00,WeatherCatV1.21B27,2013-07-30 17:41:00,
2013-07-30 12:46:00,94.7,71.3,30.00,ESE,107,3.0,6.0,47,0.00,,,0.00,WeatherCatV1.21B27,2013-07-30 17:46:00,
2013-07-30 12:51:00,94.7,71.9,30.00,SSE,150,4.0,5.0,48,0.00,,,0.00,WeatherCatV1.21B27,2013-07-30 17:51:00,
2013-07-30 12:56:00,95.1,71.0,30.00,South,191,1.0,4.0,46,0.00,,,0.00,WeatherCatV1.21B27,2013-07-30 17:56:00,
2013-07-30 13:01:00,95.6,70.8,30.00,SW,224,5.0,9.0,45,0.00,,,0.00,WeatherCatV1.21B27,2013-07-30 18:01:00,
2013-07-30 13:06:00,94.8,70.7,30.00,SW,217,1.0,5.0,46,0.00,,,0.00,WeatherCatV1.21B27,2013-07-30 18:06:00,
2013-07-30 13:11:00,95.3,70.5,29.99,SSW,213,1.0,6.0,45,0.00,,,0.00,WeatherCatV1.21B27,2013-07-30 18:11:00,
2013-07-30 13:16:00,95.7,70.9,29.99,South,184,2.0,4.0,45,0.00,,,0.00,WeatherCatV1.21B27,2013-07-30 18:16:00,
2013-07-30 13:21:00,96.6,71.1,29.99,SW,221,8.0,8.0,44,0.00,,,0.00,WeatherCatV1.21B27,2013-07-30 18:21:00,
2013-07-30 13:26:00,96.5,70.3,29.99,SE,124,4.0,5.0,43,0.00,,,0.00,WeatherCatV1.21B27,2013-07-30 18:26:00,
2013-07-30 13:31:00,96.5,71.0,29.98,SE,131,3.0,8.0,44,0.00,,,0.00,WeatherCatV1.21B27,2013-07-30 18:31:00,
2013-07-30 13:36:00,96.6,71.1,29.98,ESE,104,3.0,7.0,44,0.00,,,0.00,WeatherCatV1.21B27,2013-07-30 18:36:00,
2013-07-30 13:41:00,96.9,69.9,29.98,ESE,103,5.0,6.0,42,0.00,,,0.00,WeatherCatV1.21B27,2013-07-30 18:41:00,
2013-07-30 13:47:00,97.1,69.4,29.98,East,101,3.0,7.0,41,0.00,,,0.00,WeatherCatV1.21B27,2013-07-30 18:47:00,
2013-07-30 13:51:00,96.2,70.7,29.97,SE,141,1.0,3.0,44,0.00,,,0.00,WeatherCatV1.21B27,2013-07-30 18:51:00,
2013-07-30 13:57:00,96.1,68.5,29.97,WSW,240,3.0,4.0,41,0.00,,,0.00,WeatherCatV1.21B27,2013-07-30 18:57:00,
2013-07-30 14:02:00,95.5,70.1,29.97,SE,130,3.0,4.0,44,0.00,,,0.00,WeatherCatV1.21B27,2013-07-30 19:02:00,
2013-07-30 14:07:00,95.4,70.0,29.97,South,176,3.0,5.0,44,0.00,,,0.00,WeatherCatV1.21B27,2013-07-30 19:07:00,
2013-07-30 14:12:00,95.1,69.0,29.96,SE,143,4.0,8.0,43,0.00,,,0.00,WeatherCatV1.21B27,2013-07-30 19:12:00,
2013-07-30 14:17:00,95.6,70.2,29.96,SE,136,3.0,4.0,44,0.00,,,0.00,WeatherCatV1.21B27,2013-07-30 19:17:00,
2013-07-30 14:22:00,96.5,70.3,29.96,SE,135,5.0,5.0,43,0.00,,,0.00,WeatherCatV1.21B27,2013-07-30 19:22:00,
2013-07-30 14:27:00,97.4,70.4,29.96,SE,134,3.0,3.0,42,0.00,,,0.00,WeatherCatV1.21B27,2013-07-30 19:27:00,
2013-07-30 14:32:00,98.4,69.8,29.95,SE,124,4.0,6.0,40,0.00,,,0.00,WeatherCatV1.21B27,2013-07-30 19:32:00,
2013-07-30 14:37:00,98.5,70.7,29.95,SE,131,2.0,5.0,41,0.00,,,0.00,WeatherCatV1.21B27,2013-07-30 19:37:00,
2013-07-30 14:42:00,98.7,70.8,29.95,SE,130,4.0,5.0,41,0.00,,,0.00,WeatherCatV1.21B27,2013-07-30 19:42:00,
2013-07-30 14:47:00,98.9,70.3,29.95,ENE,58,4.0,6.0,40,0.00,,,0.00,WeatherCatV1.21B27,2013-07-30 19:47:00,
2013-07-30 14:52:00,98.9,70.3,29.95,SSE,150,4.0,4.0,40,0.00,,,0.00,WeatherCatV1.21B27,2013-07-30 19:52:00,
2013-07-30 14:57:00,99.1,69.7,29.95,SE,139,4.0,6.0,39,0.00,,,0.00,WeatherCatV1.21B27,2013-07-30 19:57:00,
2013-07-30 15:02:00,99.1,69.7,29.94,SSE,151,3.0,4.0,39,0.00,,,0.00,WeatherCatV1.21B27,2013-07-30 20:02:00,
2013-07-30 15:07:00,99.0,68.1,29.94,SE,137,1.0,7.0,37,0.00,,,0.00,WeatherCatV1.21B27,2013-07-30 20:07:00,
2013-07-30 15:12:00,98.8,69.5,29.94,WSW,248,1.0,5.0,39,0.00,,,0.00,WeatherCatV1.21B27,2013-07-30 20:12:00,
2013-07-30 15:17:00,99.2,69.1,29.94,SW,231,3.0,8.0,38,0.00,,,0.00,WeatherCatV1.21B27,2013-07-30 20:17:00,
2013-07-30 15:22:00,98.9,68.0,29.94,SSE,159,4.0,8.0,37,0.00,,,0.00,WeatherCatV1.21B27,2013-07-30 20:22:00,
2013-07-30 15:27:00,99.0,69.6,29.94,ESE,120,4.0,7.0,39,0.00,,,0.00,WeatherCatV1.21B27,2013-07-30 20:27:00,
2013-07-30 15:32:00,99.4,69.2,29.93,SW,219,2.0,4.0,38,0.00,,,0.00,WeatherCatV1.21B27,2013-07-30 20:32:00,
2013-07-30 15:37:00,99.6,67.8,29.93,SSW,205,0.0,7.0,36,0.00,,,0.00,WeatherCatV1.21B27,2013-07-30 20:37:00,
2013-07-30 15:42:00,99.6,67.8,29.93,SE,128,3.0,6.0,36,0.00,,,0.00,WeatherCatV1.21B27,2013-07-30 20:42:00,
2013-07-30 15:47:00,99.1,67.4,29.93,SE,134,6.0,8.0,36,0.00,,,0.00,WeatherCatV1.21B27,2013-07-30 20:47:00,
2013-07-30 15:52:00,99.0,67.3,29.93,SSE,164,2.0,7.0,36,0.00,,,0.00,WeatherCatV1.21B27,2013-07-30 20:52:00,
2013-07-30 15:57:00,99.4,67.7,29.92,ESE,113,3.0,5.0,36,0.00,,,0.00,WeatherCatV1.21B27,2013-07-30 20:57:00,
2013-07-30 16:02:00,99.2,65.8,29.92,WSW,238,2.0,8.0,34,0.00,,,0.00,WeatherCatV1.21B27,2013-07-30 21:02:00,
2013-07-30 16:07:00,99.5,66.1,29.92,ESE,123,2.0,11.0,34,0.00,,,0.00,WeatherCatV1.21B27,2013-07-30 21:07:00,
2013-07-30 16:12:00,99.8,66.3,29.92,South,178,2.0,7.0,34,0.00,,,0.00,WeatherCatV1.21B27,2013-07-30 21:12:00,
2013-07-30 16:17:00,100.0,64.8,29.92,SE,137,3.0,3.0,32,0.00,,,0.00,WeatherCatV1.21B27,2013-07-30 21:17:00,
2013-07-30 16:22:00,99.6,67.0,29.92,SSE,166,1.0,5.0,35,0.00,,,0.00,WeatherCatV1.21B27,2013-07-30 21:22:00,
2013-07-30 16:27:00,99.4,65.1,29.92,ESE,117,3.0,9.0,33,0.00,,,0.00,WeatherCatV1.21B27,2013-07-30 21:27:00,
2013-07-30 16:32:00,98.6,64.4,29.92,ESE,120,3.0,3.0,33,0.00,,,0.00,WeatherCatV1.21B27,2013-07-30 21:32:00,
2013-07-30 16:37:00,98.1,64.0,29.91,SSE,166,2.0,9.0,33,0.00,,,0.00,WeatherCatV1.21B27,2013-07-30 21:37:00,
2013-07-30 16:42:00,97.8,65.4,29.91,ESE,122,4.0,8.0,35,0.00,,,0.00,WeatherCatV1.21B27,2013-07-30 21:42:00,
2013-07-30 16:47:00,97.7,65.4,29.91,SE,129,1.0,4.0,35,0.00,,,0.00,WeatherCatV1.21B27,2013-07-30 21:47:00,
2013-07-30 16:52:00,97.6,64.4,29.91,North,351,0.0,3.0,34,0.00,,,0.00,WeatherCatV1.21B27,2013-07-30 21:52:00,
2013-07-30 16:57:00,97.7,65.4,29.91,East,101,3.0,5.0,35,0.00,,,0.00,WeatherCatV1.21B27,2013-07-30 21:57:00,
2013-07-30 17:02:00,97.9,64.7,29.91,SE,146,2.0,5.0,34,0.00,,,0.00,WeatherCatV1.21B27,2013-07-30 22:02:00,
2013-07-30 17:07:00,98.0,63.9,29.91,East,96,3.0,4.0,33,0.00,,,0.00,WeatherCatV1.21B27,2013-07-30 22:07:00,
2013-07-30 17:12:00,98.0,63.9,29.91,ESE,108,4.0,7.0,33,0.00,,,0.00,WeatherCatV1.21B27,2013-07-30 22:12:00,
2013-07-30 17:17:00,98.3,64.2,29.91,ESE,121,4.0,5.0,33,0.00,,,0.00,WeatherCatV1.21B27,2013-07-30 22:17:00,
2013-07-30 17:22:00,98.5,64.4,29.90,ESE,103,3.0,4.0,33,0.00,,,0.00,WeatherCatV1.21B27,2013-07-30 22:22:00,
2013-07-30 17:27:00,98.3,64.2,29.90,ESE,110,3.0,3.0,33,0.00,,,0.00,WeatherCatV1.21B27,2013-07-30 22:27:00,
2013-07-30 17:32:00,97.8,62.9,29.90,SSE,149,4.0,5.0,32,0.00,,,0.00,WeatherCatV1.21B27,2013-07-30 22:32:00,
2013-07-30 17:37:00,97.7,63.7,29.90,East,89,3.0,3.0,33,0.00,,,0.00,WeatherCatV1.21B27,2013-07-30 22:37:00,
2013-07-30 17:42:00,97.7,64.5,29.90,SE,146,1.0,4.0,34,0.00,,,0.00,WeatherCatV1.21B27,2013-07-30 22:42:00,
2013-07-30 17:47:00,97.7,64.5,29.90,ESE,111,2.0,2.0,34,0.00,,,0.00,WeatherCatV1.21B27,2013-07-30 22:47:00,
2013-07-30 17:52:00,97.8,63.8,29.90,SE,144,3.0,5.0,33,0.00,,,0.00,WeatherCatV1.21B27,2013-07-30 22:52:00,
2013-07-30 17:57:00,97.8,63.8,29.90,SE,138,4.0,6.0,33,0.00,,,0.00,WeatherCatV1.21B27,2013-07-30 22:57:00,
2013-07-30 18:02:00,98.2,63.2,29.90,South,184,1.0,4.0,32,0.00,,,0.00,WeatherCatV1.21B27,2013-07-30 23:02:00,
2013-07-30 18:07:00,98.8,63.7,29.90,SE,143,0.0,3.0,32,0.00,,,0.00,WeatherCatV1.21B27,2013-07-30 23:07:00,
2013-07-30 18:12:00,99.3,65.9,29.90,South,176,0.0,4.0,34,0.00,,,0.00,WeatherCatV1.21B27,2013-07-30 23:12:00,
2013-07-30 18:17:00,99.6,65.3,29.90,SSW,192,2.0,4.0,33,0.00,,,0.00,WeatherCatV1.21B27,2013-07-30 23:17:00,
2013-07-30 18:22:00,99.7,66.3,29.90,SE,125,2.0,5.0,34,0.00,,,0.00,WeatherCatV1.21B27,2013-07-30 23:22:00,
2013-07-30 18:27:00,99.7,66.3,29.90,ESE,112,2.0,4.0,34,0.00,,,0.00,WeatherCatV1.21B27,2013-07-30 23:27:00,
2013-07-30 18:32:00,99.3,65.9,29.90,SE,146,2.0,4.0,34,0.00,,,0.00,WeatherCatV1.21B27,2013-07-30 23:32:00,
2013-07-30 18:37:00,98.9,66.4,29.90,South,183,2.0,5.0,35,0.00,,,0.00,WeatherCatV1.21B27,2013-07-30 23:37:00,
2013-07-30 18:42:00,98.5,66.1,29.90,ESE,116,1.0,6.0,35,0.00,,,0.00,WeatherCatV1.21B27,2013-07-30 23:42:00,
2013-07-30 18:47:00,98.4,66.0,29.90,SSE,150,2.0,4.0,35,0.00,,,0.00,WeatherCatV1.21B27,2013-07-30 23:47:00,
2013-07-30 18:52:00,98.1,66.5,29.90,SE,131,3.0,4.0,36,0.00,,,0.00,WeatherCatV1.21B27,2013-07-30 23:52:00,
2013-07-30 18:57:00,97.7,65.4,29.90,SSE,150,2.0,3.0,35,0.00,,,0.00,WeatherCatV1.21B27,2013-07-30 23:57:00,
2013-07-30 19:02:00,97.0,65.6,29.90,South,176,2.0,6.0,36,0.00,,,0.00,WeatherCatV1.21B27,2013-07-31 00:02:00,
2013-07-30 19:07:00,96.4,65.8,29.90,SE,134,3.0,3.0,37,0.00,,,0.00,WeatherCatV1.21B27,2013-07-31 00:07:00,
2013-07-30 19:12:00,96.1,66.3,29.90,SSE,163,2.0,6.0,38,0.00,,,0.00,WeatherCatV1.21B27,2013-07-31 00:12:00,
2013-07-30 19:17:00,95.8,66.1,29.90,South,186,3.0,6.0,38,0.00,,,0.00,WeatherCatV1.21B27,2013-07-31 00:17:00,
2013-07-30 19:22:00,95.5,65.8,29.90,SSE,153,1.0,2.0,38,0.00,,,0.00,WeatherCatV1.21B27,2013-07-31 00:22:00,
2013-07-30 19:27:00,95.2,66.3,29.89,SE,125,2.0,3.0,39,0.00,,,0.00,WeatherCatV1.21B27,2013-07-31 00:27:00,
2013-07-30 19:32:00,94.9,66.0,29.90,South,180,1.0,3.0,39,0.00,,,0.00,WeatherCatV1.21B27,2013-07-31 00:32:00,
2013-07-30 19:37:00,94.7,65.8,29.90,South,191,1.0,3.0,39,0.00,,,0.00,WeatherCatV1.21B27,2013-07-31 00:37:00,
2013-07-30 19:42:00,94.5,65.7,29.90,SSE,156,1.0,3.0,39,0.00,,,0.00,WeatherCatV1.21B27,2013-07-31 00:42:00,
2013-07-30 19:47:00,94.3,65.5,29.90,SSE,153,1.0,2.0,39,0.00,,,0.00,WeatherCatV1.21B27,2013-07-31 00:47:00,
2013-07-30 19:52:00,94.0,65.2,29.90,SSE,150,2.0,3.0,39,0.00,,,0.00,WeatherCatV1.21B27,2013-07-31 00:52:00,
2013-07-30 19:57:00,93.8,65.0,29.90,SE,137,1.0,3.0,39,0.00,,,0.00,WeatherCatV1.21B27,2013-07-31 00:57:00,
2013-07-30 20:02:00,93.7,64.9,29.90,SE,140,3.0,3.0,39,0.00,,,0.00,WeatherCatV1.21B27,2013-07-31 01:02:00,
2013-07-30 20:07:00,93.6,65.6,29.90,South,183,2.0,3.0,40,0.00,,,0.00,WeatherCatV1.21B27,2013-07-31 01:07:00,
2013-07-30 20:12:00,93.3,65.3,29.90,SE,142,0.0,2.0,40,0.00,,,0.00,WeatherCatV1.21B27,2013-07-31 01:12:00,
2013-07-30 20:17:00,92.9,65.7,29.90,SE,143,1.0,2.0,41,0.00,,,0.00,WeatherCatV1.21B27,2013-07-31 01:17:00,
2013-07-30 20:22:00,92.6,65.4,29.90,South,186,1.0,2.0,41,0.00,,,0.00,WeatherCatV1.21B27,2013-07-31 01:22:00,
2013-07-30 20:27:00,92.1,65.7,29.90,South,186,0.0,2.0,42,0.00,,,0.00,WeatherCatV1.21B27,2013-07-31 01:27:00,
2013-07-30 20:32:00,91.7,66.0,29.90,SSE,165,0.0,1.0,43,0.00,,,0.00,WeatherCatV1.21B27,2013-07-31 01:32:00,
2013-07-30 20:37:00,91.4,65.7,29.90,SE,146,1.0,2.0,43,0.00,,,0.00,WeatherCatV1.21B27,2013-07-31 01:37:00,
2013-07-30 20:42:00,91.3,64.9,29.91,SE,138,5.0,7.0,42,0.00,,,0.00,WeatherCatV1.21B27,2013-07-31 01:42:00,
2013-07-30 20:47:00,91.5,65.8,29.91,ESE,112,5.0,6.0,43,0.00,,,0.00,WeatherCatV1.21B27,2013-07-31 01:47:00,
2013-07-30 20:52:00,91.4,66.4,29.91,ESE,115,5.0,6.0,44,0.00,,,0.00,WeatherCatV1.21B27,2013-07-31 01:52:00,
2013-07-30 20:57:00,91.4,67.0,29.91,East,91,4.0,6.0,45,0.00,,,0.00,WeatherCatV1.21B27,2013-07-31 01:57:00,
2013-07-30 21:02:00,91.1,67.4,29.91,SSE,155,3.0,6.0,46,0.00,,,0.00,WeatherCatV1.21B27,2013-07-31 02:02:00,
2013-07-30 21:07:00,90.9,67.2,29.92,ESE,110,4.0,7.0,46,0.00,,,0.00,WeatherCatV1.21B27,2013-07-31 02:07:00,
2013-07-30 21:12:00,90.8,67.7,29.92,ESE,114,4.0,8.0,47,0.00,,,0.00,WeatherCatV1.21B27,2013-07-31 02:12:00,
2013-07-30 21:17:00,90.6,67.6,29.92,SE,131,3.0,6.0,47,0.00,,,0.00,WeatherCatV1.21B27,2013-07-31 02:17:00,
2013-07-30 21:22:00,90.4,68.0,29.92,SSE,156,4.0,5.0,48,0.00,,,0.00,WeatherCatV1.21B27,2013-07-31 02:22:00,
2013-07-30 21:27:00,90.1,67.7,29.92,South,172,6.0,7.0,48,0.00,,,0.00,WeatherCatV1.21B27,2013-07-31 02:27:00,
2013-07-30 21:32:00,90.1,67.7,29.93,ESE,109,3.0,8.0,48,0.00,,,0.00,WeatherCatV1.21B27,2013-07-31 02:32:00,
2013-07-30 21:37:00,89.9,67.5,29.93,SSE,150,5.0,8.0,48,0.00,,,0.00,WeatherCatV1.21B27,2013-07-31 02:37:00,
2013-07-30 21:42:00,89.7,68.0,29.93,South,172,5.0,6.0,49,0.00,,,0.00,WeatherCatV1.21B27,2013-07-31 02:42:00,
2013-07-30 21:47:00,89.4,67.7,29.94,SE,130,4.0,6.0,49,0.00,,,0.00,WeatherCatV1.21B27,2013-07-31 02:47:00,
2013-07-30 21:52:00,89.0,67.9,29.94,ESE,121,4.0,5.0,50,0.00,,,0.00,WeatherCatV1.21B27,2013-07-31 02:52:00,
2013-07-30 21:57:00,88.8,67.7,29.95,ESE,113,3.0,6.0,50,0.00,,,0.00,WeatherCatV1.21B27,2013-07-31 02:57:00,
2013-07-30 22:02:00,88.6,67.5,29.95,SSE,148,6.0,6.0,50,0.00,,,0.00,WeatherCatV1.21B27,2013-07-31 03:02:00,
2013-07-30 22:07:00,88.3,67.8,29.95,East,98,5.0,5.0,51,0.00,,,0.00,WeatherCatV1.21B27,2013-07-31 03:07:00,
2013-07-30 22:12:00,88.1,67.7,29.95,SSW,192,4.0,7.0,51,0.00,,,0.00,WeatherCatV1.21B27,2013-07-31 03:12:00,
2013-07-30 22:17:00,87.9,67.5,29.95,SE,139,3.0,5.0,51,0.00,,,0.00,WeatherCatV1.21B27,2013-07-31 03:17:00,
2013-07-30 22:22:00,87.7,67.3,29.95,SSE,155,2.0,6.0,51,0.00,,,0.00,WeatherCatV1.21B27,2013-07-31 03:22:00,
2013-07-30 22:27:00,87.5,67.1,29.96,ESE,121,2.0,7.0,51,0.00,,,0.00,WeatherCatV1.21B27,2013-07-31 03:27:00,
2013-07-30 22:32:00,87.2,67.4,29.96,SE,124,1.0,4.0,52,0.00,,,0.00,WeatherCatV1.21B27,2013-07-31 03:32:00,
2013-07-30 22:37:00,86.8,67.0,29.96,SSE,150,3.0,4.0,52,0.00,,,0.00,WeatherCatV1.21B27,2013-07-31 03:37:00,
2013-07-30 22:42:00,86.5,66.8,29.96,SE,127,3.0,3.0,52,0.00,,,0.00,WeatherCatV1.21B27,2013-07-31 03:42:00,
2013-07-30 22:47:00,86.3,67.1,29.96,South,181,3.0,5.0,53,0.00,,,0.00,WeatherCatV1.21B27,2013-07-31 03:47:00,
2013-07-30 22:52:00,86.1,66.9,29.97,SSE,158,3.0,4.0,53,0.00,,,0.00,WeatherCatV1.21B27,2013-07-31 03:52:00,
2013-07-30 22:57:00,85.9,66.8,29.97,ESE,103,2.0,2.0,53,0.00,,,0.00,WeatherCatV1.21B27,2013-07-31 03:57:00,
2013-07-30 23:01:00,85.7,66.6,29.97,ESE,121,2.0,8.0,53,0.00,,,0.00,WeatherCatV1.21B27,2013-07-31 04:01:00,
2013-07-30 23:06:00,85.5,65.8,29.97,South,174,5.0,8.0,52,0.00,,,0.00,WeatherCatV1.21B27,2013-07-31 04:06:00,
2013-07-30 23:11:00,85.4,65.7,29.98,ESE,122,3.0,5.0,52,0.00,,,0.00,WeatherCatV1.21B27,2013-07-31 04:11:00,
2013-07-30 23:16:00,85.1,66.0,29.99,SSW,200,0.0,5.0,53,0.00,,,0.00,WeatherCatV1.21B27,2013-07-31 04:16:00,
2013-07-30 23:21:00,84.8,66.3,29.99,South,173,2.0,7.0,54,0.00,,,0.00,WeatherCatV1.21B27,2013-07-31 04:21:00,
2013-07-30 23:26:00,84.6,66.6,29.99,SW,235,0.0,4.0,55,0.00,,,0.00,WeatherCatV1.21B27,2013-07-31 04:26:00,
2013-07-30 23:31:00,84.3,66.9,29.99,SSW,205,1.0,5.0,56,0.00,,,0.00,WeatherCatV1.21B27,2013-07-31 04:31:00,
2013-07-30 23:36:00,84.0,67.1,29.99,South,191,0.0,1.0,57,0.00,,,0.00,WeatherCatV1.21B27,2013-07-31 04:36:00,
2013-07-30 23:41:00,83.7,67.8,29.99,SW,217,1.0,3.0,59,0.00,,,0.00,WeatherCatV1.21B27,2013-07-31 04:41:00,
2013-07-30 23:46:00,83.5,68.1,29.98,SE,129,1.0,2.0,60,0.00,,,0.00,WeatherCatV1.21B27,2013-07-31 04:46:00,
2013-07-30 23:51:00,83.3,68.4,29.98,SSE,167,1.0,3.0,61,0.00,,,0.00,WeatherCatV1.21B27,2013-07-31 04:51:00,
2013-07-30 23:56:00,83.2,68.8,29.98,ESE,104,2.0,4.0,62,0.00,,,0.00,WeatherCatV1.21B27,2013-07-31 04:56:00,